createdAt,value
2019-03-21T00:01:34.592Z,-2.10
2019-03-21T00:05:40.215Z,-2.10
2019-03-21T00:10:18.092Z,-2.20
2019-03-21T00:14:45.349Z,-2.20
2019-03-21T00:18:50.790Z,-2.20
2019-03-21T00:22:56.286Z,-2.10
2019-03-21T00:27:01.827Z,-2.20
2019-03-21T00:31:07.397Z,-2.40
2019-03-21T00:35:12.814Z,-2.40
2019-03-21T00:39:18.306Z,-2.30
2019-03-21T00:43:23.862Z,-2.30
2019-03-21T00:47:29.311Z,-2.50
2019-03-21T00:51:36.489Z,-2.50
2019-03-21T00:55:44.382Z,-2.50
2019-03-21T00:59:50.481Z,-2.50
2019-03-21T01:03:57.290Z,-2.60
2019-03-21T01:08:03.506Z,-2.60
2019-03-21T01:12:10.618Z,-2.70
2019-03-21T01:16:21.679Z,-2.60
2019-03-21T01:20:28.835Z,-2.50
2019-03-21T01:24:34.398Z,-2.60
2019-03-21T01:28:39.834Z,-2.70
2019-03-21T01:32:45.425Z,-2.80
2019-03-21T01:36:53.118Z,-2.80
2019-03-21T01:40:59.974Z,-2.80
2019-03-21T01:45:13.684Z,-2.80
2019-03-21T01:49:24.260Z,-2.90
2019-03-21T01:53:37.658Z,-2.80
2019-03-21T01:57:53.289Z,-2.70
2019-03-21T02:02:08.797Z,-2.90
2019-03-21T02:06:20.579Z,-2.90
2019-03-21T02:10:33.577Z,-2.90
2019-03-21T02:14:52.146Z,-3.10
2019-03-21T02:18:58.525Z,-3.00
2019-03-21T02:23:09.499Z,-2.90
2019-03-21T02:27:15.463Z,-3.00
2019-03-21T02:31:21.057Z,-3.10
2019-03-21T02:35:26.512Z,-3.20
2019-03-21T02:39:32.390Z,-3.10
2019-03-21T02:43:38.226Z,-3.10
2019-03-21T02:47:43.699Z,-3.00
2019-03-21T02:51:49.279Z,-3.00
2019-03-21T02:55:54.859Z,-3.20
2019-03-21T03:00:00.442Z,-3.40
2019-03-21T03:04:06.241Z,-3.30
2019-03-21T03:08:11.699Z,-3.40
2019-03-21T03:12:17.275Z,-3.30
2019-03-21T03:16:23.070Z,-3.30
2019-03-21T03:20:47.221Z,-3.40
2019-03-21T03:24:52.689Z,-3.50
2019-03-21T03:28:58.221Z,-3.30
2019-03-21T03:33:03.647Z,-3.30
2019-03-21T03:37:09.242Z,-3.40
2019-03-21T03:41:14.785Z,-3.60
2019-03-21T03:45:36.655Z,-3.50
2019-03-21T03:49:30.157Z,-3.70
2019-03-21T03:53:35.782Z,-3.70
2019-03-21T03:57:41.405Z,-3.60
2019-03-21T04:01:46.964Z,-3.70
2019-03-21T04:05:52.513Z,-3.70
2019-03-21T04:09:58.186Z,-3.60
2019-03-21T04:14:03.917Z,-3.50
2019-03-21T04:18:09.355Z,-3.50
2019-03-21T04:22:14.790Z,-3.70
2019-03-21T04:26:24.099Z,-3.80
2019-03-21T04:30:29.561Z,-3.90
2019-03-21T04:34:41.897Z,-4.20
2019-03-21T04:38:47.596Z,-4.10
2019-03-21T04:42:53.144Z,-3.80
2019-03-21T04:46:58.586Z,-3.80
2019-03-21T04:51:04.000Z,-3.80
2019-03-21T04:55:10.799Z,-4.10
2019-03-21T04:59:16.256Z,-3.90
2019-03-21T05:03:22.731Z,-4.00
2019-03-21T05:07:28.499Z,-3.80
2019-03-21T05:11:34.593Z,-4.00
2019-03-21T05:15:41.101Z,-4.10
2019-03-21T05:19:46.875Z,-4.00
2019-03-21T05:23:52.672Z,-3.80
2019-03-21T05:27:58.326Z,-3.70
2019-03-21T05:32:04.235Z,-3.80
2019-03-21T05:36:10.134Z,-3.50
2019-03-21T05:40:16.431Z,-3.60
2019-03-21T05:44:33.178Z,-3.60
2019-03-21T05:48:38.920Z,-3.60
2019-03-21T05:52:44.888Z,-3.60
2019-03-21T05:56:50.734Z,-3.30
2019-03-21T06:00:56.637Z,-3.20
2019-03-21T06:05:19.234Z,-3.10
2019-03-21T06:10:09.572Z,-3.30
2019-03-21T06:14:54.560Z,-3.10
2019-03-21T06:19:17.935Z,-3.00
2019-03-21T06:23:54.591Z,-2.70
2019-03-21T06:28:00.717Z,-2.80
2019-03-21T06:32:06.389Z,-2.50
2019-03-21T06:36:11.814Z,-2.40
2019-03-21T06:40:18.104Z,-2.40
2019-03-21T06:44:23.744Z,-2.30
2019-03-21T06:48:29.186Z,-2.00
2019-03-21T06:52:34.641Z,-1.70
2019-03-21T06:56:40.281Z,-1.50
2019-03-21T07:00:45.710Z,-1.30
2019-03-21T07:04:51.439Z,-1.00
2019-03-21T07:08:56.919Z,-0.70
2019-03-21T07:13:02.395Z,-0.40
2019-03-21T07:17:08.520Z,-0.20
2019-03-21T07:21:13.997Z,0.10
2019-03-21T07:25:19.594Z,0.40
2019-03-21T07:29:25.215Z,0.80
2019-03-21T07:33:30.917Z,1.30
2019-03-21T07:37:36.594Z,1.80
2019-03-21T07:41:42.023Z,2.40
2019-03-21T07:45:48.124Z,2.90
2019-03-21T07:49:53.897Z,3.40
2019-03-21T07:53:59.752Z,4.30
2019-03-21T07:58:14.180Z,5.10
2019-03-21T08:02:24.814Z,5.60
2019-03-21T08:06:38.330Z,6.00
2019-03-21T08:10:44.760Z,6.40
2019-03-21T08:14:52.356Z,6.80
2019-03-21T08:18:58.354Z,7.00
2019-03-21T08:23:04.182Z,7.00
2019-03-21T08:27:10.039Z,7.50
2019-03-21T08:31:19.370Z,7.90
2019-03-21T08:35:24.825Z,8.30
2019-03-21T08:39:30.466Z,9.40
2019-03-21T08:43:35.967Z,10.50
2019-03-21T08:47:41.439Z,12.20
2019-03-21T08:51:46.899Z,13.50
2019-03-21T08:55:52.357Z,13.40
2019-03-21T08:59:58.089Z,14.30
2019-03-21T09:04:03.539Z,14.70
2019-03-21T09:08:09.023Z,14.60
2019-03-21T09:12:14.619Z,15.70
2019-03-21T09:16:20.142Z,16.80
2019-03-21T09:20:25.772Z,17.00
2019-03-21T09:24:31.371Z,16.10
2019-03-21T09:28:36.817Z,17.80
2019-03-21T09:32:42.353Z,18.10
2019-03-21T09:36:47.853Z,19.20
2019-03-21T09:40:53.525Z,17.80
2019-03-21T09:44:58.980Z,17.70
2019-03-21T09:49:04.758Z,18.20
2019-03-21T09:53:10.222Z,19.10
2019-03-21T09:57:22.984Z,19.20
2019-03-21T10:01:34.410Z,17.70
2019-03-21T10:05:40.544Z,17.10
2019-03-21T10:09:46.635Z,19.10
2019-03-21T10:13:52.435Z,19.70
2019-03-21T10:17:57.959Z,20.20
2019-03-21T10:22:03.479Z,20.10
2019-03-21T10:26:08.889Z,19.70
2019-03-21T10:30:20.093Z,20.20
2019-03-21T10:34:27.421Z,20.70
2019-03-21T10:38:32.849Z,20.00
2019-03-21T10:42:38.314Z,19.80
2019-03-21T10:46:43.752Z,20.60
2019-03-21T10:50:50.188Z,20.30
2019-03-21T10:54:55.817Z,20.00
2019-03-21T10:59:01.252Z,20.10
2019-03-21T11:03:07.420Z,20.00
2019-03-21T11:07:10.386Z,20.10
2019-03-21T11:11:15.814Z,20.70
2019-03-21T11:15:21.378Z,21.20
2019-03-21T11:19:27.221Z,21.50
2019-03-21T11:23:32.724Z,21.40
2019-03-21T11:27:38.156Z,21.30
2019-03-21T11:31:43.627Z,20.70
2019-03-21T11:35:49.102Z,19.80
2019-03-21T11:39:54.559Z,20.80
2019-03-21T11:44:00.028Z,20.90
2019-03-21T11:48:05.948Z,20.60
2019-03-21T11:52:18.070Z,20.80
2019-03-21T11:56:18.538Z,23.00
2019-03-21T12:00:24.221Z,22.50
2019-03-21T12:04:29.657Z,21.90
2019-03-21T12:08:35.211Z,22.10
2019-03-21T12:12:40.685Z,21.60
2019-03-21T12:16:46.284Z,21.00
2019-03-21T12:20:51.850Z,22.20
2019-03-21T12:24:57.349Z,22.70
2019-03-21T12:29:02.815Z,23.90
2019-03-21T12:33:09.006Z,24.20
2019-03-21T12:37:14.474Z,24.40
2019-03-21T12:41:20.262Z,22.90
2019-03-21T12:45:25.708Z,22.00
2019-03-21T12:49:31.178Z,22.40
2019-03-21T12:53:36.613Z,22.90
2019-03-21T12:57:45.758Z,24.10
2019-03-21T13:01:56.943Z,23.50
2019-03-21T13:06:02.520Z,23.50
2019-03-21T13:10:08.074Z,23.80
2019-03-21T13:14:13.586Z,24.40
2019-03-21T13:18:24.996Z,23.60
2019-03-21T13:22:37.591Z,23.80
2019-03-21T13:26:49.967Z,23.40
2019-03-21T13:30:55.722Z,23.00
2019-03-21T13:35:07.199Z,21.30
2019-03-21T13:39:17.388Z,22.30
2019-03-21T13:43:23.063Z,23.20
2019-03-21T13:47:28.524Z,24.40
2019-03-21T13:51:33.957Z,23.30
2019-03-21T13:55:39.402Z,24.40
2019-03-21T13:59:45.104Z,25.00
2019-03-21T14:03:56.962Z,24.70
2019-03-21T14:08:03.308Z,25.50
2019-03-21T14:12:08.795Z,25.00
2019-03-21T14:16:18.042Z,24.10
2019-03-21T14:20:30.893Z,24.60
2019-03-21T14:24:40.656Z,24.40
2019-03-21T14:28:51.514Z,23.80
2019-03-21T14:33:00.945Z,22.40
2019-03-21T14:37:08.514Z,23.00
2019-03-21T14:41:13.937Z,23.00
2019-03-21T14:45:20.732Z,23.70
2019-03-21T14:49:27.514Z,23.10
2019-03-21T14:53:33.162Z,23.50
2019-03-21T14:57:38.612Z,20.90
2019-03-21T15:01:44.039Z,17.90
2019-03-21T15:05:49.640Z,16.40
2019-03-21T15:09:55.104Z,15.50
2019-03-21T15:14:00.690Z,14.80
2019-03-21T15:18:06.288Z,14.20
2019-03-21T15:22:11.939Z,13.70
2019-03-21T15:26:17.373Z,13.40
2019-03-21T15:30:22.836Z,13.10
2019-03-21T15:34:28.491Z,12.90
2019-03-21T15:38:34.014Z,12.70
2019-03-21T15:42:40.057Z,12.60
2019-03-21T15:46:45.554Z,12.50
2019-03-21T15:50:51.111Z,12.50
2019-03-21T15:54:56.627Z,12.40
2019-03-21T15:59:02.127Z,12.20
2019-03-21T16:03:08.493Z,12.00
2019-03-21T16:07:15.037Z,11.80
2019-03-21T16:11:20.492Z,11.60
2019-03-21T16:15:26.024Z,11.50
2019-03-21T16:19:31.800Z,11.40
2019-03-21T16:23:37.264Z,11.30
2019-03-21T16:27:43.236Z,11.10
2019-03-21T16:31:48.827Z,10.70
2019-03-21T16:35:55.435Z,10.30
2019-03-21T16:40:01.034Z,10.00
2019-03-21T16:44:08.753Z,9.70
2019-03-21T16:48:20.111Z,9.40
2019-03-21T16:52:25.921Z,9.20
2019-03-21T16:56:31.598Z,8.80
2019-03-21T17:00:37.365Z,8.60
2019-03-21T17:04:46.131Z,8.40
2019-03-21T17:08:52.248Z,8.10
2019-03-21T17:12:59.423Z,7.80
2019-03-21T17:17:05.371Z,7.60
2019-03-21T17:21:10.895Z,7.40
2019-03-21T17:25:22.293Z,7.10
2019-03-21T17:29:28.902Z,6.90
2019-03-21T17:33:34.569Z,6.70
2019-03-21T17:37:40.028Z,6.40
2019-03-21T17:41:45.608Z,6.20
2019-03-21T17:45:51.084Z,6.00
2019-03-21T17:49:56.792Z,5.80
2019-03-21T17:54:02.322Z,5.70
2019-03-21T17:58:08.065Z,5.50
2019-03-21T18:02:13.891Z,5.40
2019-03-21T18:06:19.462Z,5.20
2019-03-21T18:10:30.166Z,5.00
2019-03-21T18:14:35.800Z,4.90
2019-03-21T18:18:41.591Z,4.80
2019-03-21T18:22:47.075Z,4.60
2019-03-21T18:26:52.884Z,4.50
2019-03-21T18:30:58.695Z,4.30
2019-03-21T18:35:04.359Z,4.20
2019-03-21T18:39:10.593Z,4.10
2019-03-21T18:43:16.427Z,4.00
2019-03-21T18:47:22.095Z,3.80
2019-03-21T18:51:28.313Z,3.70
2019-03-21T18:55:34.112Z,3.60
2019-03-21T18:59:39.789Z,3.50
2019-03-21T19:03:45.207Z,3.30
2019-03-21T19:07:51.020Z,3.30
2019-03-21T19:11:56.442Z,3.30
2019-03-21T19:16:01.870Z,3.20
2019-03-21T19:20:08.629Z,3.10
2019-03-21T19:24:14.495Z,3.00
2019-03-21T19:28:19.931Z,2.90
2019-03-21T19:32:25.460Z,2.80
2019-03-21T19:36:30.943Z,2.70
2019-03-21T19:40:36.471Z,2.70
2019-03-21T19:44:42.622Z,2.60
2019-03-21T19:48:50.656Z,2.50
2019-03-21T19:52:56.928Z,2.40
2019-03-21T19:57:02.704Z,2.40
2019-03-21T20:01:08.289Z,2.30
2019-03-21T20:05:14.239Z,2.30
2019-03-21T20:09:19.708Z,2.20
2019-03-21T20:13:25.239Z,2.10
2019-03-21T20:17:30.697Z,2.10
2019-03-21T20:21:47.308Z,2.00
2019-03-21T20:25:43.550Z,1.90
2019-03-21T20:29:49.051Z,1.80
2019-03-21T20:33:54.596Z,1.80
2019-03-21T20:38:00.063Z,1.70
2019-03-21T20:42:05.587Z,1.70
2019-03-21T20:46:11.179Z,1.70
2019-03-21T20:50:16.700Z,1.50
2019-03-21T20:54:22.295Z,1.50
2019-03-21T20:58:27.830Z,1.50
2019-03-21T21:02:33.383Z,1.40
2019-03-21T21:06:39.154Z,1.30
2019-03-21T21:10:44.596Z,1.20
2019-03-21T21:14:50.226Z,1.20
2019-03-21T21:18:55.678Z,1.10
2019-03-21T21:23:02.326Z,1.00
2019-03-21T21:27:12.850Z,0.90
2019-03-21T21:31:18.598Z,0.90
2019-03-21T21:35:24.104Z,0.90
2019-03-21T21:39:30.629Z,0.90
2019-03-21T21:43:36.104Z,0.80
2019-03-21T21:47:41.683Z,0.70
2019-03-21T21:51:47.107Z,0.70
2019-03-21T21:55:52.727Z,0.60
2019-03-21T21:59:58.167Z,0.60
2019-03-21T22:04:04.894Z,0.50
2019-03-21T22:08:10.901Z,0.50
2019-03-21T22:12:16.343Z,0.40
2019-03-21T22:16:21.803Z,0.40
2019-03-21T22:20:27.401Z,0.40
2019-03-21T22:24:32.862Z,0.30
2019-03-21T22:28:38.396Z,0.30
2019-03-21T22:32:43.962Z,0.30
2019-03-21T22:36:49.853Z,0.20
2019-03-21T22:40:55.317Z,0.10
2019-03-21T22:45:00.753Z,0.10
2019-03-21T22:49:06.322Z,0.00
2019-03-21T22:53:11.769Z,0.00
2019-03-21T22:57:17.434Z,0.00
2019-03-21T23:01:22.968Z,-0.10
2019-03-21T23:05:28.570Z,-0.10
2019-03-21T23:09:34.053Z,-0.20
2019-03-21T23:13:40.701Z,-0.20
2019-03-21T23:17:46.135Z,-0.20
2019-03-21T23:21:51.826Z,-0.30
2019-03-21T23:25:57.295Z,-0.30
2019-03-21T23:30:02.716Z,-0.30
2019-03-21T23:34:08.149Z,-0.30
2019-03-21T23:38:13.631Z,-0.40
2019-03-21T23:42:19.036Z,-0.40
2019-03-21T23:46:24.569Z,-0.40
2019-03-21T23:50:30.077Z,-0.50
2019-03-21T23:54:35.532Z,-0.60
2019-03-21T23:58:40.972Z,-0.50
